OPA Logo
 
ASOS:
At:2020.01.27 0215 UTC
Wind:200° @ 6KT
Viz: 10 mile(s)
Sky: clear
Temp: 41 F (5 C)
DewP: 28 F (-2 C)
RH: 60%
Baro: 30.07 in.
ob: KBDN 270215Z AUTO 20006KT 10SM CLR 05/M02 A3007 RMK AO2

ASOS: KRDM
At:2020.01.27 0156 UTC
Wind:
Viz: 10 mile(s)
Sky: mostly clear
Temp: 39.0 F (3.9 C)
DewP: 27.0 F (-2.8 C)
RH: 61%
Baro: 30.07 in.
ob: KRDM 270156Z 00000KT 10SM FEW065 04/M03 A3007 RMK AO2 SLP188 T00391028
Apache-SSL Logo

Valid HTML 4.01!

Central Oregon OPA Chapter

Calendar


Other Calendar pages

Oregon Pilots Association Events Calendar

Washington Pilots Association Events


Web page by: gem@rellim.com